sensor_id;sensor_type;location;lat;lon;timestamp;P1;durP1;ratioP1;P2;durP2;ratioP2
62880;SDS011;48969;49.934;8.596;2023-09-19T00:00:34;2.55;;;1.60;;
62880;SDS011;48969;49.934;8.596;2023-09-19T00:02:59;2.45;;;1.38;;
62880;SDS011;48969;49.934;8.596;2023-09-19T00:05:28;3.67;;;1.45;;
62880;SDS011;48969;49.934;8.596;2023-09-19T00:07:54;2.88;;;1.70;;
62880;SDS011;48969;49.934;8.596;2023-09-19T00:10:20;2.67;;;1.73;;
62880;SDS011;48969;49.934;8.596;2023-09-19T00:12:46;2.65;;;1.70;;
62880;SDS011;48969;49.934;8.596;2023-09-19T00:15:12;2.28;;;1.30;;
62880;SDS011;48969;49.934;8.596;2023-09-19T00:17:37;3.17;;;1.50;;
62880;SDS011;48969;49.934;8.596;2023-09-19T00:20:02;3.83;;;1.57;;
62880;SDS011;48969;49.934;8.596;2023-09-19T00:22:31;2.70;;;1.38;;
62880;SDS011;48969;49.934;8.596;2023-09-19T00:24:57;2.80;;;1.33;;
62880;SDS011;48969;49.934;8.596;2023-09-19T00:27:22;4.18;;;2.00;;
62880;SDS011;48969;49.934;8.596;2023-09-19T00:29:47;2.83;;;1.50;;
62880;SDS011;48969;49.934;8.596;2023-09-19T00:32:13;2.22;;;1.52;;
62880;SDS011;48969;49.934;8.596;2023-09-19T00:34:38;3.97;;;1.67;;
62880;SDS011;48969;49.934;8.596;2023-09-19T00:37:03;2.22;;;1.42;;
62880;SDS011;48969;49.934;8.596;2023-09-19T00:39:28;2.95;;;1.40;;
62880;SDS011;48969;49.934;8.596;2023-09-19T00:41:56;2.78;;;1.60;;
62880;SDS011;48969;49.934;8.596;2023-09-19T00:44:21;2.67;;;1.42;;
62880;SDS011;48969;49.934;8.596;2023-09-19T00:46:48;3.20;;;1.58;;
62880;SDS011;48969;49.934;8.596;2023-09-19T00:49:15;2.63;;;1.50;;
62880;SDS011;48969;49.934;8.596;2023-09-19T00:51:40;3.63;;;1.50;;
62880;SDS011;48969;49.934;8.596;2023-09-19T00:54:10;2.45;;;1.60;;
62880;SDS011;48969;49.934;8.596;2023-09-19T00:56:38;4.47;;;1.83;;
62880;SDS011;48969;49.934;8.596;2023-09-19T00:59:05;2.83;;;1.90;;
62880;SDS011;48969;49.934;8.596;2023-09-19T01:01:30;4.65;;;1.52;;
62880;SDS011;48969;49.934;8.596;2023-09-19T01:03:56;2.97;;;1.55;;
62880;SDS011;48969;49.934;8.596;2023-09-19T01:06:21;2.80;;;1.70;;
62880;SDS011;48969;49.934;8.596;2023-09-19T01:08:47;3.53;;;1.92;;
62880;SDS011;48969;49.934;8.596;2023-09-19T01:11:13;3.00;;;1.80;;
62880;SDS011;48969;49.934;8.596;2023-09-19T01:13:55;3.55;;;1.92;;
62880;SDS011;48969;49.934;8.596;2023-09-19T01:16:28;2.30;;;1.33;;
62880;SDS011;48969;49.934;8.596;2023-09-19T01:29:04;3.08;;;1.67;;
62880;SDS011;48969;49.934;8.596;2023-09-19T01:34:03;3.60;;;2.08;;
62880;SDS011;48969;49.934;8.596;2023-09-19T01:36:36;3.40;;;1.60;;
62880;SDS011;48969;49.934;8.596;2023-09-19T01:39:05;3.92;;;1.85;;
62880;SDS011;48969;49.934;8.596;2023-09-19T01:44:06;3.55;;;1.55;;
62880;SDS011;48969;49.934;8.596;2023-09-19T01:46:34;2.47;;;1.80;;
62880;SDS011;48969;49.934;8.596;2023-09-19T01:51:37;3.08;;;1.95;;
62880;SDS011;48969;49.934;8.596;2023-09-19T01:54:11;2.35;;;1.30;;
62880;SDS011;48969;49.934;8.596;2023-09-19T01:56:42;3.42;;;1.75;;
62880;SDS011;48969;49.934;8.596;2023-09-19T02:01:36;3.75;;;1.75;;
62880;SDS011;48969;49.934;8.596;2023-09-19T02:04:02;3.47;;;1.52;;
62880;SDS011;48969;49.934;8.596;2023-09-19T02:06:27;4.40;;;1.70;;
62880;SDS011;48969;49.934;8.596;2023-09-19T02:08:53;3.53;;;1.80;;
62880;SDS011;48969;49.934;8.596;2023-09-19T02:14:22;3.67;;;1.83;;
62880;SDS011;48969;49.934;8.596;2023-09-19T02:16:47;3.60;;;1.92;;
62880;SDS011;48969;49.934;8.596;2023-09-19T02:19:13;2.47;;;1.70;;
62880;SDS011;48969;49.934;8.596;2023-09-19T02:21:38;3.73;;;1.80;;
62880;SDS011;48969;49.934;8.596;2023-09-19T02:24:05;4.03;;;1.60;;
62880;SDS011;48969;49.934;8.596;2023-09-19T02:26:31;2.85;;;1.83;;
62880;SDS011;48969;49.934;8.596;2023-09-19T02:28:56;4.00;;;1.90;;
62880;SDS011;48969;49.934;8.596;2023-09-19T02:31:21;5.35;;;2.03;;
62880;SDS011;48969;49.934;8.596;2023-09-19T02:33:46;3.27;;;2.10;;
62880;SDS011;48969;49.934;8.596;2023-09-19T02:36:12;3.08;;;1.63;;
62880;SDS011;48969;49.934;8.596;2023-09-19T02:38:42;1.90;;;1.63;;
62880;SDS011;48969;49.934;8.596;2023-09-19T02:41:07;3.92;;;2.15;;
62880;SDS011;48969;49.934;8.596;2023-09-19T02:43:32;3.92;;;1.90;;
62880;SDS011;48969;49.934;8.596;2023-09-19T02:45:58;3.08;;;1.70;;
62880;SDS011;48969;49.934;8.596;2023-09-19T02:48:23;3.67;;;1.80;;
62880;SDS011;48969;49.934;8.596;2023-09-19T02:50:50;4.07;;;1.90;;
62880;SDS011;48969;49.934;8.596;2023-09-19T02:53:15;4.28;;;1.88;;
62880;SDS011;48969;49.934;8.596;2023-09-19T02:55:40;2.00;;;1.80;;
62880;SDS011;48969;49.934;8.596;2023-09-19T02:58:06;2.38;;;1.80;;
62880;SDS011;48969;49.934;8.596;2023-09-19T03:00:36;2.47;;;2.00;;
62880;SDS011;48969;49.934;8.596;2023-09-19T03:03:01;3.08;;;1.90;;
62880;SDS011;48969;49.934;8.596;2023-09-19T03:05:27;4.60;;;2.30;;
62880;SDS011;48969;49.934;8.596;2023-09-19T03:07:55;2.38;;;1.92;;
62880;SDS011;48969;49.934;8.596;2023-09-19T03:10:21;3.40;;;1.90;;
62880;SDS011;48969;49.934;8.596;2023-09-19T03:12:46;3.85;;;1.75;;
62880;SDS011;48969;49.934;8.596;2023-09-19T03:15:12;3.17;;;2.10;;
62880;SDS011;48969;49.934;8.596;2023-09-19T03:17:37;3.20;;;2.05;;
62880;SDS011;48969;49.934;8.596;2023-09-19T03:20:03;4.57;;;2.13;;
62880;SDS011;48969;49.934;8.596;2023-09-19T03:22:34;2.70;;;1.70;;
62880;SDS011;48969;49.934;8.596;2023-09-19T03:24:59;3.35;;;1.92;;
62880;SDS011;48969;49.934;8.596;2023-09-19T03:27:25;2.75;;;1.63;;
62880;SDS011;48969;49.934;8.596;2023-09-19T03:29:52;4.93;;;1.80;;
62880;SDS011;48969;49.934;8.596;2023-09-19T03:32:17;3.60;;;1.85;;
62880;SDS011;48969;49.934;8.596;2023-09-19T03:34:42;3.78;;;1.52;;
62880;SDS011;48969;49.934;8.596;2023-09-19T03:37:11;3.15;;;1.90;;
62880;SDS011;48969;49.934;8.596;2023-09-19T03:39:37;4.53;;;1.55;;
62880;SDS011;48969;49.934;8.596;2023-09-19T03:42:02;5.03;;;1.85;;
62880;SDS011;48969;49.934;8.596;2023-09-19T03:44:29;3.88;;;2.08;;
62880;SDS011;48969;49.934;8.596;2023-09-19T03:46:54;2.50;;;1.90;;
62880;SDS011;48969;49.934;8.596;2023-09-19T03:49:20;3.47;;;2.20;;
62880;SDS011;48969;49.934;8.596;2023-09-19T03:51:45;3.03;;;1.70;;
62880;SDS011;48969;49.934;8.596;2023-09-19T03:54:11;2.83;;;1.85;;
62880;SDS011;48969;49.934;8.596;2023-09-19T03:56:36;2.23;;;1.53;;
62880;SDS011;48969;49.934;8.596;2023-09-19T03:59:01;2.55;;;1.92;;
62880;SDS011;48969;49.934;8.596;2023-09-19T04:01:27;3.55;;;2.30;;
62880;SDS011;48969;49.934;8.596;2023-09-19T04:03:53;4.95;;;2.20;;
62880;SDS011;48969;49.934;8.596;2023-09-19T04:06:18;3.47;;;2.50;;
62880;SDS011;48969;49.934;8.596;2023-09-19T04:08:44;3.83;;;2.40;;
62880;SDS011;48969;49.934;8.596;2023-09-19T04:11:09;4.60;;;2.80;;
62880;SDS011;48969;49.934;8.596;2023-09-19T04:13:35;3.50;;;2.60;;
62880;SDS011;48969;49.934;8.596;2023-09-19T04:16:00;3.57;;;2.43;;
62880;SDS011;48969;49.934;8.596;2023-09-19T04:18:25;3.60;;;2.50;;
62880;SDS011;48969;49.934;8.596;2023-09-19T04:20:51;5.90;;;2.40;;
62880;SDS011;48969;49.934;8.596;2023-09-19T04:23:16;5.32;;;2.67;;
62880;SDS011;48969;49.934;8.596;2023-09-19T04:25:42;4.13;;;2.60;;
62880;SDS011;48969;49.934;8.596;2023-09-19T04:28:07;5.32;;;2.67;;
62880;SDS011;48969;49.934;8.596;2023-09-19T04:30:32;3.73;;;2.63;;
62880;SDS011;48969;49.934;8.596;2023-09-19T04:32:57;4.97;;;2.50;;
62880;SDS011;48969;49.934;8.596;2023-09-19T04:35:22;4.20;;;2.22;;
62880;SDS011;48969;49.934;8.596;2023-09-19T04:37:48;4.90;;;2.45;;
62880;SDS011;48969;49.934;8.596;2023-09-19T04:40:13;4.37;;;2.43;;
62880;SDS011;48969;49.934;8.596;2023-09-19T04:42:43;4.88;;;2.60;;
62880;SDS011;48969;49.934;8.596;2023-09-19T04:45:08;3.00;;;2.05;;
62880;SDS011;48969;49.934;8.596;2023-09-19T04:47:37;3.78;;;2.35;;
62880;SDS011;48969;49.934;8.596;2023-09-19T04:50:05;3.65;;;2.20;;
62880;SDS011;48969;49.934;8.596;2023-09-19T04:52:30;5.25;;;2.30;;
62880;SDS011;48969;49.934;8.596;2023-09-19T04:54:56;3.95;;;2.10;;
62880;SDS011;48969;49.934;8.596;2023-09-19T04:57:22;4.88;;;2.22;;
62880;SDS011;48969;49.934;8.596;2023-09-19T04:59:47;4.35;;;2.15;;
62880;SDS011;48969;49.934;8.596;2023-09-19T05:02:13;4.75;;;2.42;;
62880;SDS011;48969;49.934;8.596;2023-09-19T05:04:38;3.05;;;2.05;;
62880;SDS011;48969;49.934;8.596;2023-09-19T05:07:03;4.28;;;2.38;;
62880;SDS011;48969;49.934;8.596;2023-09-19T05:09:29;4.40;;;2.03;;
62880;SDS011;48969;49.934;8.596;2023-09-19T05:11:54;3.95;;;1.83;;
62880;SDS011;48969;49.934;8.596;2023-09-19T05:14:19;2.80;;;1.63;;
62880;SDS011;48969;49.934;8.596;2023-09-19T05:16:46;3.58;;;1.80;;
62880;SDS011;48969;49.934;8.596;2023-09-19T05:19:11;2.15;;;1.65;;
62880;SDS011;48969;49.934;8.596;2023-09-19T05:21:36;3.15;;;1.85;;
62880;SDS011;48969;49.934;8.596;2023-09-19T05:24:04;5.65;;;2.28;;
62880;SDS011;48969;49.934;8.596;2023-09-19T05:26:31;4.32;;;2.92;;
62880;SDS011;48969;49.934;8.596;2023-09-19T05:28:56;4.28;;;2.42;;
62880;SDS011;48969;49.934;8.596;2023-09-19T05:31:21;5.22;;;3.20;;
62880;SDS011;48969;49.934;8.596;2023-09-19T05:33:48;7.25;;;3.72;;
62880;SDS011;48969;49.934;8.596;2023-09-19T05:36:13;6.00;;;3.90;;
62880;SDS011;48969;49.934;8.596;2023-09-19T05:38:42;4.28;;;3.35;;
62880;SDS011;48969;49.934;8.596;2023-09-19T05:41:09;5.38;;;3.63;;
62880;SDS011;48969;49.934;8.596;2023-09-19T05:43:36;5.68;;;3.78;;
62880;SDS011;48969;49.934;8.596;2023-09-19T05:46:02;5.57;;;3.88;;
62880;SDS011;48969;49.934;8.596;2023-09-19T05:48:28;5.93;;;3.70;;
62880;SDS011;48969;49.934;8.596;2023-09-19T05:50:53;4.53;;;3.50;;
62880;SDS011;48969;49.934;8.596;2023-09-19T05:53:18;4.90;;;3.55;;
62880;SDS011;48969;49.934;8.596;2023-09-19T05:55:43;7.88;;;4.22;;
62880;SDS011;48969;49.934;8.596;2023-09-19T05:58:09;6.88;;;3.85;;
62880;SDS011;48969;49.934;8.596;2023-09-19T06:00:35;5.03;;;3.45;;
62880;SDS011;48969;49.934;8.596;2023-09-19T06:03:01;6.35;;;3.80;;
62880;SDS011;48969;49.934;8.596;2023-09-19T06:05:27;6.30;;;3.85;;
62880;SDS011;48969;49.934;8.596;2023-09-19T06:07:53;5.35;;;3.65;;
62880;SDS011;48969;49.934;8.596;2023-09-19T06:10:18;7.25;;;3.55;;
62880;SDS011;48969;49.934;8.596;2023-09-19T06:12:45;6.00;;;3.55;;
62880;SDS011;48969;49.934;8.596;2023-09-19T06:15:12;4.30;;;2.92;;
62880;SDS011;48969;49.934;8.596;2023-09-19T06:17:43;6.38;;;3.60;;
62880;SDS011;48969;49.934;8.596;2023-09-19T06:20:08;5.22;;;3.97;;
62880;SDS011;48969;49.934;8.596;2023-09-19T06:22:43;7.07;;;3.88;;
62880;SDS011;48969;49.934;8.596;2023-09-19T06:25:13;5.70;;;3.30;;
62880;SDS011;48969;49.934;8.596;2023-09-19T06:27:40;6.03;;;3.42;;
62880;SDS011;48969;49.934;8.596;2023-09-19T06:30:09;3.88;;;3.22;;
62880;SDS011;48969;49.934;8.596;2023-09-19T06:32:36;5.03;;;2.80;;
62880;SDS011;48969;49.934;8.596;2023-09-19T06:35:01;4.10;;;2.42;;
62880;SDS011;48969;49.934;8.596;2023-09-19T06:37:28;4.93;;;2.35;;
62880;SDS011;48969;49.934;8.596;2023-09-19T06:39:53;4.30;;;3.03;;
62880;SDS011;48969;49.934;8.596;2023-09-19T06:42:18;4.72;;;2.60;;
62880;SDS011;48969;49.934;8.596;2023-09-19T06:44:44;5.43;;;3.17;;
62880;SDS011;48969;49.934;8.596;2023-09-19T06:47:09;4.70;;;2.38;;
62880;SDS011;48969;49.934;8.596;2023-09-19T06:49:35;6.18;;;2.85;;
62880;SDS011;48969;49.934;8.596;2023-09-19T06:52:01;4.45;;;2.42;;
62880;SDS011;48969;49.934;8.596;2023-09-19T06:54:27;4.53;;;2.50;;
62880;SDS011;48969;49.934;8.596;2023-09-19T06:56:56;6.50;;;2.70;;
62880;SDS011;48969;49.934;8.596;2023-09-19T06:59:23;5.97;;;2.65;;
62880;SDS011;48969;49.934;8.596;2023-09-19T07:01:48;7.40;;;3.05;;
62880;SDS011;48969;49.934;8.596;2023-09-19T07:04:16;2.95;;;2.03;;
62880;SDS011;48969;49.934;8.596;2023-09-19T07:06:41;5.03;;;2.70;;
62880;SDS011;48969;49.934;8.596;2023-09-19T07:09:07;5.70;;;2.83;;
62880;SDS011;48969;49.934;8.596;2023-09-19T07:11:33;5.05;;;2.60;;
62880;SDS011;48969;49.934;8.596;2023-09-19T07:13:59;5.68;;;2.88;;
62880;SDS011;48969;49.934;8.596;2023-09-19T07:16:24;4.65;;;2.33;;
62880;SDS011;48969;49.934;8.596;2023-09-19T07:18:54;4.38;;;2.42;;
62880;SDS011;48969;49.934;8.596;2023-09-19T07:21:21;4.35;;;2.40;;
62880;SDS011;48969;49.934;8.596;2023-09-19T07:23:46;4.50;;;2.45;;
62880;SDS011;48969;49.934;8.596;2023-09-19T07:26:12;3.45;;;2.60;;
62880;SDS011;48969;49.934;8.596;2023-09-19T07:28:37;5.27;;;2.70;;
62880;SDS011;48969;49.934;8.596;2023-09-19T07:31:02;4.88;;;2.90;;
62880;SDS011;48969;49.934;8.596;2023-09-19T07:33:28;6.47;;;3.00;;
62880;SDS011;48969;49.934;8.596;2023-09-19T07:35:53;5.95;;;2.78;;
62880;SDS011;48969;49.934;8.596;2023-09-19T07:38:19;4.78;;;2.70;;
62880;SDS011;48969;49.934;8.596;2023-09-19T07:40:44;4.63;;;2.42;;
62880;SDS011;48969;49.934;8.596;2023-09-19T07:43:09;4.60;;;2.50;;
62880;SDS011;48969;49.934;8.596;2023-09-19T07:45:34;4.15;;;2.50;;
62880;SDS011;48969;49.934;8.596;2023-09-19T07:48:01;6.18;;;2.10;;
62880;SDS011;48969;49.934;8.596;2023-09-19T07:50:32;4.85;;;2.60;;
62880;SDS011;48969;49.934;8.596;2023-09-19T07:52:58;3.47;;;2.03;;
62880;SDS011;48969;49.934;8.596;2023-09-19T07:55:24;4.95;;;2.53;;
62880;SDS011;48969;49.934;8.596;2023-09-19T07:57:50;3.92;;;2.38;;
62880;SDS011;48969;49.934;8.596;2023-09-19T08:00:16;3.58;;;2.38;;
62880;SDS011;48969;49.934;8.596;2023-09-19T08:02:41;6.82;;;2.13;;
62880;SDS011;48969;49.934;8.596;2023-09-19T08:05:10;2.55;;;1.83;;
62880;SDS011;48969;49.934;8.596;2023-09-19T08:07:36;4.57;;;2.10;;
62880;SDS011;48969;49.934;8.596;2023-09-19T08:10:02;2.42;;;2.00;;
62880;SDS011;48969;49.934;8.596;2023-09-19T08:12:27;2.90;;;1.80;;
62880;SDS011;48969;49.934;8.596;2023-09-19T08:14:52;4.50;;;1.90;;
62880;SDS011;48969;49.934;8.596;2023-09-19T08:17:18;3.83;;;1.65;;
62880;SDS011;48969;49.934;8.596;2023-09-19T08:19:45;3.67;;;1.52;;
62880;SDS011;48969;49.934;8.596;2023-09-19T08:22:11;2.20;;;1.63;;
62880;SDS011;48969;49.934;8.596;2023-09-19T08:24:36;5.33;;;1.90;;
62880;SDS011;48969;49.934;8.596;2023-09-19T08:27:03;4.30;;;1.87;;
62880;SDS011;48969;49.934;8.596;2023-09-19T08:29:29;5.05;;;1.55;;
62880;SDS011;48969;49.934;8.596;2023-09-19T08:31:55;3.47;;;1.55;;
62880;SDS011;48969;49.934;8.596;2023-09-19T08:34:20;5.78;;;1.95;;
62880;SDS011;48969;49.934;8.596;2023-09-19T08:36:46;4.80;;;1.90;;
62880;SDS011;48969;49.934;8.596;2023-09-19T08:39:13;5.05;;;2.22;;
62880;SDS011;48969;49.934;8.596;2023-09-19T08:41:39;4.45;;;1.63;;
62880;SDS011;48969;49.934;8.596;2023-09-19T08:44:04;2.30;;;1.40;;
62880;SDS011;48969;49.934;8.596;2023-09-19T08:46:30;4.20;;;1.40;;
62880;SDS011;48969;49.934;8.596;2023-09-19T08:51:27;4.53;;;1.75;;
62880;SDS011;48969;49.934;8.596;2023-09-19T08:53:58;4.85;;;1.50;;
62880;SDS011;48969;49.934;8.596;2023-09-19T08:56:25;3.80;;;1.75;;
62880;SDS011;48969;49.934;8.596;2023-09-19T08:58:57;5.35;;;1.80;;
62880;SDS011;48969;49.934;8.596;2023-09-19T09:01:24;4.30;;;1.83;;
62880;SDS011;48969;49.934;8.596;2023-09-19T09:03:52;3.65;;;1.80;;
62880;SDS011;48969;49.934;8.596;2023-09-19T09:06:18;2.53;;;1.35;;
62880;SDS011;48969;49.934;8.596;2023-09-19T09:08:45;6.57;;;1.80;;
62880;SDS011;48969;49.934;8.596;2023-09-19T09:11:10;4.20;;;1.67;;
62880;SDS011;48969;49.934;8.596;2023-09-19T09:13:36;4.03;;;1.77;;
62880;SDS011;48969;49.934;8.596;2023-09-19T09:16:02;4.38;;;1.52;;
62880;SDS011;48969;49.934;8.596;2023-09-19T09:18:28;3.35;;;1.60;;
62880;SDS011;48969;49.934;8.596;2023-09-19T09:20:54;4.50;;;1.75;;
62880;SDS011;48969;49.934;8.596;2023-09-19T09:23:21;3.17;;;1.52;;
62880;SDS011;48969;49.934;8.596;2023-09-19T09:25:46;2.40;;;1.40;;
62880;SDS011;48969;49.934;8.596;2023-09-19T09:28:12;6.90;;;2.22;;
62880;SDS011;48969;49.934;8.596;2023-09-19T09:30:44;7.22;;;1.90;;
62880;SDS011;48969;49.934;8.596;2023-09-19T09:33:10;3.30;;;1.42;;
62880;SDS011;48969;49.934;8.596;2023-09-19T09:35:36;5.55;;;1.92;;
62880;SDS011;48969;49.934;8.596;2023-09-19T09:38:02;3.55;;;1.60;;
62880;SDS011;48969;49.934;8.596;2023-09-19T09:40:45;4.25;;;1.98;;
62880;SDS011;48969;49.934;8.596;2023-09-19T09:46:18;3.85;;;1.63;;
62880;SDS011;48969;49.934;8.596;2023-09-19T09:49:04;4.43;;;1.73;;
62880;SDS011;48969;49.934;8.596;2023-09-19T09:51:45;4.80;;;1.70;;
62880;SDS011;48969;49.934;8.596;2023-09-19T09:54:24;3.25;;;1.75;;
62880;SDS011;48969;49.934;8.596;2023-09-19T09:59:18;5.10;;;1.58;;
62880;SDS011;48969;49.934;8.596;2023-09-19T10:01:47;5.43;;;2.20;;
62880;SDS011;48969;49.934;8.596;2023-09-19T10:04:15;5.55;;;2.10;;
62880;SDS011;48969;49.934;8.596;2023-09-19T10:06:53;4.13;;;2.05;;
62880;SDS011;48969;49.934;8.596;2023-09-19T10:09:19;3.25;;;1.88;;
62880;SDS011;48969;49.934;8.596;2023-09-19T10:12:05;6.38;;;2.20;;
62880;SDS011;48969;49.934;8.596;2023-09-19T10:14:31;5.18;;;1.90;;
62880;SDS011;48969;49.934;8.596;2023-09-19T10:16:58;4.97;;;2.30;;
62880;SDS011;48969;49.934;8.596;2023-09-19T10:19:30;4.05;;;1.85;;
62880;SDS011;48969;49.934;8.596;2023-09-19T10:21:57;3.80;;;1.65;;
62880;SDS011;48969;49.934;8.596;2023-09-19T10:24:23;5.22;;;2.10;;
62880;SDS011;48969;49.934;8.596;2023-09-19T10:26:51;7.20;;;1.60;;
62880;SDS011;48969;49.934;8.596;2023-09-19T10:29:18;4.30;;;2.03;;
62880;SDS011;48969;49.934;8.596;2023-09-19T10:31:44;5.70;;;1.90;;
62880;SDS011;48969;49.934;8.596;2023-09-19T10:34:12;4.97;;;2.00;;
62880;SDS011;48969;49.934;8.596;2023-09-19T10:36:39;5.80;;;1.88;;
62880;SDS011;48969;49.934;8.596;2023-09-19T10:39:07;6.13;;;1.88;;
62880;SDS011;48969;49.934;8.596;2023-09-19T10:41:34;3.92;;;1.60;;
62880;SDS011;48969;49.934;8.596;2023-09-19T10:44:03;5.05;;;1.88;;
62880;SDS011;48969;49.934;8.596;2023-09-19T10:46:29;4.47;;;1.60;;
62880;SDS011;48969;49.934;8.596;2023-09-19T10:48:58;4.55;;;1.83;;
62880;SDS011;48969;49.934;8.596;2023-09-19T10:51:24;5.15;;;1.70;;
62880;SDS011;48969;49.934;8.596;2023-09-19T10:54:06;7.38;;;2.00;;
62880;SDS011;48969;49.934;8.596;2023-09-19T10:56:36;6.65;;;1.83;;
62880;SDS011;48969;49.934;8.596;2023-09-19T10:59:14;4.32;;;1.80;;
62880;SDS011;48969;49.934;8.596;2023-09-19T11:01:47;6.03;;;1.95;;
62880;SDS011;48969;49.934;8.596;2023-09-19T11:04:23;4.97;;;2.05;;
62880;SDS011;48969;49.934;8.596;2023-09-19T11:09:52;6.43;;;2.03;;
62880;SDS011;48969;49.934;8.596;2023-09-19T11:15:01;5.72;;;2.20;;
62880;SDS011;48969;49.934;8.596;2023-09-19T11:17:33;8.20;;;2.00;;
62880;SDS011;48969;49.934;8.596;2023-09-19T11:30:44;5.85;;;2.08;;
62880;SDS011;48969;49.934;8.596;2023-09-19T11:33:15;4.97;;;1.50;;
62880;SDS011;48969;49.934;8.596;2023-09-19T11:36:01;5.30;;;1.80;;
62880;SDS011;48969;49.934;8.596;2023-09-19T11:41:52;5.15;;;1.73;;
62880;SDS011;48969;49.934;8.596;2023-09-19T11:46:25;7.93;;;1.92;;
62880;SDS011;48969;49.934;8.596;2023-09-19T11:48:51;4.03;;;1.65;;
62880;SDS011;48969;49.934;8.596;2023-09-19T11:51:20;4.75;;;1.80;;
62880;SDS011;48969;49.934;8.596;2023-09-19T11:53:55;5.65;;;1.73;;
62880;SDS011;48969;49.934;8.596;2023-09-19T11:56:22;6.85;;;1.60;;
62880;SDS011;48969;49.934;8.596;2023-09-19T11:58:52;3.72;;;1.60;;
62880;SDS011;48969;49.934;8.596;2023-09-19T12:01:21;4.90;;;2.08;;
62880;SDS011;48969;49.934;8.596;2023-09-19T12:03:51;4.18;;;1.58;;
62880;SDS011;48969;49.934;8.596;2023-09-19T12:06:17;4.32;;;1.50;;
62880;SDS011;48969;49.934;8.596;2023-09-19T12:08:43;4.50;;;1.70;;
62880;SDS011;48969;49.934;8.596;2023-09-19T12:11:14;4.75;;;1.60;;
62880;SDS011;48969;49.934;8.596;2023-09-19T12:13:41;6.38;;;2.05;;
62880;SDS011;48969;49.934;8.596;2023-09-19T12:16:11;5.53;;;1.60;;
62880;SDS011;48969;49.934;8.596;2023-09-19T12:18:39;5.75;;;1.60;;
62880;SDS011;48969;49.934;8.596;2023-09-19T12:21:07;6.38;;;1.80;;
62880;SDS011;48969;49.934;8.596;2023-09-19T12:23:37;5.72;;;1.50;;
62880;SDS011;48969;49.934;8.596;2023-09-19T12:26:06;5.10;;;1.70;;
62880;SDS011;48969;49.934;8.596;2023-09-19T12:28:38;4.22;;;1.80;;
62880;SDS011;48969;49.934;8.596;2023-09-19T12:31:07;5.68;;;1.60;;
62880;SDS011;48969;49.934;8.596;2023-09-19T12:33:33;3.85;;;1.50;;
62880;SDS011;48969;49.934;8.596;2023-09-19T12:36:00;3.75;;;1.45;;
62880;SDS011;48969;49.934;8.596;2023-09-19T12:38:28;2.75;;;1.35;;
62880;SDS011;48969;49.934;8.596;2023-09-19T12:40:57;4.22;;;1.30;;
62880;SDS011;48969;49.934;8.596;2023-09-19T12:43:25;4.70;;;1.48;;
62880;SDS011;48969;49.934;8.596;2023-09-19T12:45:51;4.72;;;1.67;;
62880;SDS011;48969;49.934;8.596;2023-09-19T12:48:21;2.92;;;1.63;;
62880;SDS011;48969;49.934;8.596;2023-09-19T12:53:31;3.70;;;1.50;;
62880;SDS011;48969;49.934;8.596;2023-09-19T12:55:59;3.00;;;1.52;;
62880;SDS011;48969;49.934;8.596;2023-09-19T12:58:24;3.95;;;1.50;;
62880;SDS011;48969;49.934;8.596;2023-09-19T13:00:50;5.50;;;1.75;;
62880;SDS011;48969;49.934;8.596;2023-09-19T13:05:50;4.00;;;1.30;;
62880;SDS011;48969;49.934;8.596;2023-09-19T13:08:19;2.90;;;1.52;;
62880;SDS011;48969;49.934;8.596;2023-09-19T13:16:20;3.42;;;1.40;;
62880;SDS011;48969;49.934;8.596;2023-09-19T13:18:51;3.00;;;1.40;;
62880;SDS011;48969;49.934;8.596;2023-09-19T13:21:26;3.78;;;1.60;;
62880;SDS011;48969;49.934;8.596;2023-09-19T13:23:53;5.10;;;1.73;;
62880;SDS011;48969;49.934;8.596;2023-09-19T13:26:27;3.88;;;1.50;;
62880;SDS011;48969;49.934;8.596;2023-09-19T13:28:53;4.90;;;1.58;;
62880;SDS011;48969;49.934;8.596;2023-09-19T13:31:19;3.25;;;1.55;;
62880;SDS011;48969;49.934;8.596;2023-09-19T13:33:44;3.45;;;1.50;;
62880;SDS011;48969;49.934;8.596;2023-09-19T13:36:10;3.30;;;1.50;;
62880;SDS011;48969;49.934;8.596;2023-09-19T13:38:37;6.43;;;1.80;;
62880;SDS011;48969;49.934;8.596;2023-09-19T13:41:02;3.78;;;1.40;;
62880;SDS011;48969;49.934;8.596;2023-09-19T13:43:28;5.18;;;1.55;;
62880;SDS011;48969;49.934;8.596;2023-09-19T13:45:54;5.10;;;1.73;;
62880;SDS011;48969;49.934;8.596;2023-09-19T13:48:19;3.33;;;1.58;;
62880;SDS011;48969;49.934;8.596;2023-09-19T13:50:47;4.97;;;1.60;;
62880;SDS011;48969;49.934;8.596;2023-09-19T13:53:12;4.40;;;1.10;;
62880;SDS011;48969;49.934;8.596;2023-09-19T13:55:38;3.13;;;1.27;;
62880;SDS011;48969;49.934;8.596;2023-09-19T13:58:03;2.47;;;1.42;;
62880;SDS011;48969;49.934;8.596;2023-09-19T14:00:31;2.30;;;1.77;;
62880;SDS011;48969;49.934;8.596;2023-09-19T14:02:59;3.33;;;1.30;;
62880;SDS011;48969;49.934;8.596;2023-09-19T14:05:26;2.05;;;1.20;;
62880;SDS011;48969;49.934;8.596;2023-09-19T14:07:53;3.95;;;1.67;;
62880;SDS011;48969;49.934;8.596;2023-09-19T14:10:21;5.38;;;1.92;;
62880;SDS011;48969;49.934;8.596;2023-09-19T14:12:46;2.88;;;1.55;;
62880;SDS011;48969;49.934;8.596;2023-09-19T14:15:11;2.05;;;1.20;;
62880;SDS011;48969;49.934;8.596;2023-09-19T14:17:39;3.60;;;1.50;;
62880;SDS011;48969;49.934;8.596;2023-09-19T14:20:07;3.90;;;1.60;;
62880;SDS011;48969;49.934;8.596;2023-09-19T14:22:32;3.85;;;1.60;;
62880;SDS011;48969;49.934;8.596;2023-09-19T14:24:58;3.17;;;1.73;;
62880;SDS011;48969;49.934;8.596;2023-09-19T14:27:24;2.67;;;1.40;;
62880;SDS011;48969;49.934;8.596;2023-09-19T14:29:50;5.20;;;1.60;;
62880;SDS011;48969;49.934;8.596;2023-09-19T14:32:15;2.90;;;1.40;;
62880;SDS011;48969;49.934;8.596;2023-09-19T14:34:40;3.25;;;1.30;;
62880;SDS011;48969;49.934;8.596;2023-09-19T14:37:08;4.68;;;1.85;;
62880;SDS011;48969;49.934;8.596;2023-09-19T14:39:33;2.20;;;1.30;;
62880;SDS011;48969;49.934;8.596;2023-09-19T14:41:58;3.05;;;1.60;;
62880;SDS011;48969;49.934;8.596;2023-09-19T14:44:23;2.77;;;1.43;;
62880;SDS011;48969;49.934;8.596;2023-09-19T14:46:49;4.18;;;1.50;;
62880;SDS011;48969;49.934;8.596;2023-09-19T14:49:14;2.58;;;1.27;;
62880;SDS011;48969;49.934;8.596;2023-09-19T14:51:40;2.83;;;1.52;;
62880;SDS011;48969;49.934;8.596;2023-09-19T14:54:06;3.92;;;1.67;;
62880;SDS011;48969;49.934;8.596;2023-09-19T14:56:32;2.75;;;1.42;;
62880;SDS011;48969;49.934;8.596;2023-09-19T14:58:58;3.17;;;1.50;;
62880;SDS011;48969;49.934;8.596;2023-09-19T15:01:23;4.10;;;1.38;;
62880;SDS011;48969;49.934;8.596;2023-09-19T15:03:48;2.17;;;1.30;;
62880;SDS011;48969;49.934;8.596;2023-09-19T15:06:14;2.83;;;1.20;;
62880;SDS011;48969;49.934;8.596;2023-09-19T15:08:42;4.05;;;1.50;;
62880;SDS011;48969;49.934;8.596;2023-09-19T15:11:12;3.45;;;1.35;;
62880;SDS011;48969;49.934;8.596;2023-09-19T15:13:38;3.47;;;1.50;;
62880;SDS011;48969;49.934;8.596;2023-09-19T15:16:04;3.42;;;1.40;;
62880;SDS011;48969;49.934;8.596;2023-09-19T15:18:29;3.33;;;1.50;;
62880;SDS011;48969;49.934;8.596;2023-09-19T15:20:55;2.70;;;1.23;;
62880;SDS011;48969;49.934;8.596;2023-09-19T15:23:21;2.95;;;1.27;;
62880;SDS011;48969;49.934;8.596;2023-09-19T15:25:49;2.22;;;1.23;;
62880;SDS011;48969;49.934;8.596;2023-09-19T15:28:14;2.80;;;1.30;;
62880;SDS011;48969;49.934;8.596;2023-09-19T15:30:40;3.38;;;1.30;;
62880;SDS011;48969;49.934;8.596;2023-09-19T15:33:05;2.85;;;1.48;;
62880;SDS011;48969;49.934;8.596;2023-09-19T15:35:30;4.70;;;1.50;;
62880;SDS011;48969;49.934;8.596;2023-09-19T15:37:55;2.00;;;1.25;;
62880;SDS011;48969;49.934;8.596;2023-09-19T15:40:21;2.35;;;1.30;;
62880;SDS011;48969;49.934;8.596;2023-09-19T15:42:48;1.92;;;1.10;;
62880;SDS011;48969;49.934;8.596;2023-09-19T15:45:14;2.95;;;1.25;;
62880;SDS011;48969;49.934;8.596;2023-09-19T15:47:40;3.30;;;1.50;;
62880;SDS011;48969;49.934;8.596;2023-09-19T15:50:05;2.25;;;1.20;;